Time;durP1;ratioP1;P1;durP2;ratioP2;P2;SDS_P1;SDS_P2;PMS_P1;PMS_P2;Temp;Humidity;BMP_temperature;BMP_pressure;BME280_temperature;BME280_humidity;BME280_pressure;Samples;Min_cycle;Max_cycle;Signal;HPM_P1;HPM_P2
2021/01/19 00:01:38;;;;;;;23.15;13.30;;;;;;;-7.16;51.49;102432.10;1759553;81;21152;-45
2021/01/19 00:04:07;;;;;;;20.32;12.28;;;;;;;-7.21;51.68;102438.45;1753791;81;21148;-46
2021/01/19 00:06:36;;;;;;;24.07;12.82;;;;;;;-7.26;51.58;102439.77;1756928;81;21164;-45
2021/01/19 00:09:05;;;;;;;21.85;12.98;;;;;;;-7.32;51.83;102451.06;1745701;81;21147;-45
2021/01/19 00:11:33;;;;;;;22.00;13.05;;;;;;;-7.33;51.97;102448.02;1753356;81;21286;-45
2021/01/19 00:14:01;;;;;;;21.68;12.20;;;;;;;-7.29;52.00;102453.42;1756532;81;21552;-45
2021/01/19 00:16:30;;;;;;;18.85;10.85;;;;;;;-7.21;51.81;102449.83;1758529;81;21302;-45
2021/01/19 00:18:58;;;;;;;20.65;11.10;;;;;;;-7.14;51.45;102458.39;1763067;81;21293;-45
2021/01/19 00:21:26;;;;;;;19.35;11.93;;;;;;;-7.17;51.06;102455.62;1768543;81;21159;-45
2021/01/19 00:23:54;;;;;;;19.37;11.85;;;;;;;-7.26;50.81;102456.20;1761676;81;21140;-45
2021/01/19 00:26:23;;;;;;;20.45;12.20;;;;;;;-7.33;50.73;102460.28;1759530;81;21144;-46
2021/01/19 00:28:51;;;;;;;20.97;12.07;;;;;;;-7.36;50.52;102465.13;1756534;81;21662;-51
2021/01/19 00:31:19;;;;;;;19.40;12.13;;;;;;;-7.35;50.47;102456.75;1759707;81;21600;-46
2021/01/19 00:33:48;;;;;;;25.08;12.93;;;;;;;-7.30;50.52;102450.42;1756617;81;21168;-45
2021/01/19 00:36:16;;;;;;;21.30;12.40;;;;;;;-7.22;50.68;102453.52;1752840;81;21113;-45
2021/01/19 00:38:44;;;;;;;25.00;13.95;;;;;;;-7.07;50.66;102461.90;1809757;78;21164;-45
2021/01/19 00:41:13;;;;;;;23.45;13.08;;;;;;;-6.88;50.48;102461.59;1809705;78;21132;-46
2021/01/19 00:43:41;;;;;;;24.55;14.20;;;;;;;-6.72;50.05;102453.99;1813617;79;21144;-45
2021/01/19 00:46:09;;;;;;;21.50;13.32;;;;;;;-6.57;49.73;102449.59;1734769;82;21148;-46
2021/01/19 00:48:37;;;;;;;23.00;13.35;;;;;;;-6.47;49.51;102443.16;1754189;82;21330;-45
2021/01/19 00:51:05;;;;;;;23.18;13.30;;;;;;;-6.36;49.30;102449.86;1748438;82;21156;-45
2021/01/19 00:53:34;;;;;;;37.30;18.10;;;;;;;-6.27;49.01;102448.89;1810885;79;21324;-46
2021/01/19 00:56:03;;;;;;;25.95;14.95;;;;;;;-6.20;48.88;102445.16;1769538;80;21168;-45
2021/01/19 00:58:31;;;;;;;28.65;15.25;;;;;;;-6.14;48.73;102448.13;1735340;82;21172;-45
2021/01/19 01:01:00;;;;;;;30.52;17.02;;;;;;;-6.09;48.57;102442.98;1783382;79;21155;-45
2021/01/19 01:03:30;;;;;;;26.30;15.83;;;;;;;-6.05;48.48;102441.16;1809557;79;21148;-45
2021/01/19 01:05:58;;;;;;;26.55;15.65;;;;;;;-6.03;48.48;102439.62;1818313;79;21283;-45
2021/01/19 01:08:26;;;;;;;29.35;16.27;;;;;;;-6.04;48.44;102438.73;1806331;79;21101;-44
2021/01/19 01:10:55;;;;;;;28.35;14.53;;;;;;;-6.04;48.37;102431.13;1810980;79;21136;-45
2021/01/19 01:13:23;;;;;;;25.72;15.93;;;;;;;-6.05;48.25;102436.09;1734150;82;21572;-46
2021/01/19 01:15:52;;;;;;;25.62;14.60;;;;;;;-6.08;48.19;102434.63;1739100;82;21168;-44
2021/01/19 01:18:21;;;;;;;29.00;15.60;;;;;;;-6.10;48.25;102431.11;1748388;82;21155;-45
2021/01/19 01:20:49;;;;;;;28.67;15.68;;;;;;;-6.12;48.21;102428.84;1771981;80;21286;-46
2021/01/19 01:23:17;;;;;;;27.35;15.65;;;;;;;-6.14;48.25;102432.92;1778679;80;21302;-45
2021/01/19 01:25:45;;;;;;;26.15;14.15;;;;;;;-6.23;47.90;102439.86;1774976;80;21124;-45
2021/01/19 01:28:14;;;;;;;25.75;15.25;;;;;;;-6.34;47.93;102441.61;1753941;82;21145;-46
2021/01/19 01:30:43;;;;;;;25.90;14.93;;;;;;;-6.39;47.79;102443.33;1743564;82;21165;-46
2021/01/19 01:33:12;;;;;;;29.27;15.40;;;;;;;-6.45;47.95;102446.27;1812338;79;21152;-46
2021/01/19 01:35:40;;;;;;;26.95;14.43;;;;;;;-6.46;47.93;102441.11;1809223;79;21168;-45
2021/01/19 01:38:08;;;;;;;35.03;18.27;;;;;;;-6.56;47.90;102442.47;1819255;79;21127;-45
2021/01/19 01:40:37;;;;;;;28.92;16.30;;;;;;;-6.63;47.98;102437.75;1812523;79;21305;-45
2021/01/19 01:43:13;;;;;;;26.27;15.10;;;;;;;-6.70;48.00;102454.98;1746854;82;21309;-45
2021/01/19 01:45:42;;;;;;;32.67;15.48;;;;;;;-6.77;48.15;102457.85;1763385;81;21207;-45
2021/01/19 01:48:10;;;;;;;28.62;16.45;;;;;;;-6.76;48.32;102459.59;1754072;82;21609;-46
2021/01/19 01:50:39;;;;;;;24.23;14.68;;;;;;;-6.72;48.41;102460.32;1751437;81;21305;-45
2021/01/19 01:53:07;;;;;;;23.38;13.98;;;;;;;-6.65;48.37;102465.09;1754251;82;21160;-45
2021/01/19 01:55:35;;;;;;;27.42;14.90;;;;;;;-6.59;48.27;102466.31;1768099;81;21322;-45
2021/01/19 01:58:03;;;;;;;23.85;14.73;;;;;;;-6.57;48.12;102471.11;1756178;81;21152;-45
2021/01/19 02:00:32;;;;;;;24.57;13.80;;;;;;;-6.56;48.04;102467.80;1753344;82;21188;-45
2021/01/19 02:03:00;;;;;;;28.95;15.32;;;;;;;-6.54;47.94;102464.61;1755259;81;21301;-46
2021/01/19 02:05:29;;;;;;;23.42;14.53;;;;;;;-6.52;47.92;102467.25;1762842;81;21306;-45
2021/01/19 02:08:51;;;;;;;24.50;14.20;;;;;;;-6.51;47.75;102466.50;1757082;81;21172;-45
2021/01/19 02:11:31;;;;;;;24.67;13.83;;;;;;;-6.48;47.58;102469.23;1752236;81;21330;-45
2021/01/19 02:14:07;;;;;;;26.27;13.40;;;;;;;-6.51;47.42;102462.70;1765664;81;21156;-45
2021/01/19 02:16:51;;;;;;;23.12;13.20;;;;;;;-6.60;47.19;102466.69;1750704;82;21148;-46
2021/01/19 02:20:07;;;;;;;23.02;14.03;;;;;;;-6.77;47.12;102471.77;1754132;81;21312;-46
2021/01/19 02:23:08;;;;;;;30.12;15.60;;;;;;;-6.94;47.38;102468.36;1737825;82;21291;-45
2021/01/19 02:26:34;;;;;;;26.70;14.28;;;;;;;-7.07;47.58;102467.33;1742416;82;21560;-46
2021/01/19 02:29:26;;;;;;;26.33;14.98;;;;;;;-7.11;47.93;102462.41;1754446;81;21116;-45
2021/01/19 02:32:34;;;;;;;31.93;16.32;;;;;;;-7.05;48.08;102465.42;1658487;85;21762;-45
2021/01/19 02:35:28;;;;;;;35.75;17.75;;;;;;;-6.91;48.06;102463.54;1817002;78;23096;-44
2021/01/19 02:38:23;;;;;;;26.85;14.23;;;;;;;-6.92;47.92;102469.36;1825133;78;21569;-45
2021/01/19 02:40:56;;;;;;;23.35;12.98;;;;;;;-6.88;47.72;102472.98;1826995;78;21179;-45
2021/01/19 02:43:25;;;;;;;30.90;17.87;;;;;;;-6.86;47.52;102466.02;1827631;78;21147;-44
2021/01/19 02:45:54;;;;;;;22.22;14.05;;;;;;;-6.85;47.50;102464.37;1827723;78;21148;-44
2021/01/19 02:48:23;;;;;;;33.08;17.00;;;;;;;-6.86;47.53;102468.55;1827757;78;21168;-44
2021/01/19 02:50:51;;;;;;;25.97;15.05;;;;;;;-6.86;47.48;102458.83;1827963;78;21151;-44
2021/01/19 02:53:20;;;;;;;25.32;14.53;;;;;;;-6.88;47.53;102454.90;1828172;78;22219;-44
2021/01/19 02:55:48;;;;;;;32.20;17.00;;;;;;;-6.88;47.62;102459.95;1827398;78;21289;-45
2021/01/19 02:58:30;;;;;;;30.30;15.72;;;;;;;-6.88;47.51;102454.90;1827641;78;21116;-44
2021/01/19 03:01:22;;;;;;;25.15;15.60;;;;;;;-6.88;47.33;102447.68;1827741;78;21140;-45
2021/01/19 03:03:50;;;;;;;39.48;18.82;;;;;;;-6.94;47.13;102437.99;1826676;78;21148;-46
2021/01/19 03:06:20;;;;;;;28.70;15.65;;;;;;;-7.09;47.22;102440.63;1827618;78;21152;-45
2021/01/19 03:08:48;;;;;;;31.87;17.77;;;;;;;-7.24;47.49;102442.41;1827726;78;21116;-45
2021/01/19 03:11:18;;;;;;;43.78;20.32;;;;;;;-7.30;47.75;102442.83;1792165;78;21152;-45
2021/01/19 03:13:48;;;;;;;29.87;15.83;;;;;;;-7.29;47.89;102450.90;1827551;78;21155;-45
2021/01/19 03:16:20;;;;;;;31.20;16.60;;;;;;;-7.25;47.97;102448.25;1827845;78;21602;-45
2021/01/19 03:18:49;;;;;;;38.53;19.37;;;;;;;-7.21;47.95;102454.89;1827783;78;21155;-45
2021/01/19 03:21:17;;;;;;;29.70;16.62;;;;;;;-7.16;47.95;102448.55;1827766;78;21163;-45
2021/01/19 03:23:46;;;;;;;30.17;16.67;;;;;;;-7.11;47.80;102453.55;1827599;78;21285;-45
2021/01/19 03:26:14;;;;;;;37.67;18.07;;;;;;;-7.07;47.78;102447.98;1827981;78;21278;-45
2021/01/19 03:28:43;;;;;;;34.53;17.73;;;;;;;-7.06;47.80;102437.45;1827630;78;21144;-45
2021/01/19 03:31:13;;;;;;;34.65;17.60;;;;;;;-7.07;47.54;102447.09;1827559;78;21136;-45
2021/01/19 03:33:42;;;;;;;29.95;16.90;;;;;;;-7.07;47.38;102458.11;1826883;78;21164;-45
2021/01/19 03:36:10;;;;;;;25.40;15.72;;;;;;;-7.09;47.10;102454.55;1825001;78;21128;-45
2021/01/19 03:38:39;;;;;;;35.80;19.05;;;;;;;-7.14;46.96;102453.34;1825030;78;21151;-45
2021/01/19 03:41:07;;;;;;;38.60;20.05;;;;;;;-7.18;46.86;102455.13;1825131;78;21152;-45
2021/01/19 03:43:36;;;;;;;29.67;15.53;;;;;;;-7.21;46.69;102458.69;1824956;78;21159;-45
2021/01/19 03:46:04;;;;;;;36.15;17.70;;;;;;;-7.23;46.64;102451.36;1824658;78;21128;-45
2021/01/19 03:48:32;;;;;;;36.25;17.92;;;;;;;-7.24;46.55;102447.46;1824324;79;21116;-47
2021/01/19 03:51:01;;;;;;;32.05;18.87;;;;;;;-7.29;46.61;102448.38;1818034;79;21560;-45
2021/01/19 03:53:30;;;;;;;35.85;18.25;;;;;;;-7.33;46.50;102440.05;1824266;78;21132;-45
2021/01/19 03:55:59;;;;;;;33.08;18.07;;;;;;;-7.36;46.62;102432.25;1824596;78;21549;-45
2021/01/19 03:58:27;;;;;;;29.18;14.65;;;;;;;-7.38;46.76;102440.11;1817486;79;21544;-45
2021/01/19 04:00:55;;;;;;;35.40;17.25;;;;;;;-7.40;46.89;102440.37;1824367;78;21144;-45
2021/01/19 04:03:24;;;;;;;36.38;18.92;;;;;;;-7.37;47.03;102445.64;1824343;79;21141;-46
2021/01/19 04:05:52;;;;;;;34.50;17.37;;;;;;;-7.36;47.01;102444.89;1824506;79;21293;-45
2021/01/19 04:08:20;;;;;;;32.13;18.05;;;;;;;-7.36;46.84;102448.69;1824606;78;21124;-45
2021/01/19 04:10:51;;;;;;;30.05;16.32;;;;;;;-7.37;47.02;102441.85;1824453;79;21171;-46
2021/01/19 04:13:19;;;;;;;26.12;14.13;;;;;;;-7.37;47.02;102439.70;1824560;78;21120;-46
2021/01/19 04:15:48;;;;;;;38.00;18.40;;;;;;;-7.40;47.01;102440.37;1824691;78;21120;-46
2021/01/19 04:18:17;;;;;;;26.50;14.87;;;;;;;-7.40;46.95;102438.22;1824666;79;21286;-46
2021/01/19 04:20:45;;;;;;;28.95;15.48;;;;;;;-7.40;46.96;102442.90;1824443;78;21124;-46
2021/01/19 04:23:14;;;;;;;35.73;18.85;;;;;;;-7.38;46.65;102451.48;1824560;79;21120;-46
2021/01/19 04:25:45;;;;;;;28.90;15.88;;;;;;;-7.38;46.45;102454.02;1824588;78;21563;-46
2021/01/19 04:28:14;;;;;;;28.95;14.58;;;;;;;-7.40;46.27;102454.66;1824774;78;21155;-46
2021/01/19 04:30:43;;;;;;;35.70;17.42;;;;;;;-7.43;46.31;102457.82;1824723;78;21600;-46
2021/01/19 04:33:11;;;;;;;28.50;16.23;;;;;;;-7.42;46.28;102457.07;1824334;79;21556;-46
2021/01/19 04:35:42;;;;;;;27.80;14.93;;;;;;;-7.40;46.08;102456.80;1818908;79;21136;-46
2021/01/19 04:38:10;;;;;;;29.00;15.45;;;;;;;-7.39;46.02;102461.08;1824668;79;21167;-46
2021/01/19 04:40:39;;;;;;;31.75;16.07;;;;;;;-7.38;45.84;102456.91;1824474;79;21179;-46
2021/01/19 04:43:07;;;;;;;25.90;14.33;;;;;;;-7.37;45.64;102448.55;1792249;79;21581;-46
2021/01/19 04:45:36;;;;;;;32.98;17.92;;;;;;;-7.40;45.65;102446.69;1824555;78;21171;-46
2021/01/19 04:48:05;;;;;;;26.75;15.35;;;;;;;-7.42;45.77;102443.54;1795125;79;21309;-46
2021/01/19 04:50:34;;;;;;;37.48;18.23;;;;;;;-7.42;45.78;102434.31;1824242;79;21155;-46
2021/01/19 04:53:03;;;;;;;28.07;15.90;;;;;;;-7.44;45.91;102434.95;1824199;78;21116;-46
2021/01/19 04:55:36;;;;;;;33.65;17.87;;;;;;;-7.46;45.83;102429.80;1824141;79;21163;-46
2021/01/19 04:58:06;;;;;;;36.08;18.12;;;;;;;-7.47;45.73;102425.48;1824419;78;21186;-46
2021/01/19 05:00:36;;;;;;;31.27;15.58;;;;;;;-7.47;45.72;102430.54;1824304;79;21152;-46
2021/01/19 05:06:00;;;;;;;31.73;16.75;;;;;;;-7.38;45.39;102441.74;1771559;79;23097;-45
2021/01/19 05:08:46;;;;;;;27.62;15.35;;;;;;;-7.44;45.18;102445.95;1737996;82;21581;-45
2021/01/19 05:11:24;;;;;;;27.93;13.90;;;;;;;-7.45;45.01;102444.17;1740283;82;21171;-44
2021/01/19 05:14:03;;;;;;;34.53;17.48;;;;;;;-7.46;44.97;102448.75;1694242;84;21182;-46
2021/01/19 05:16:35;;;;;;;40.35;19.48;;;;;;;-7.49;44.91;102453.19;1690750;84;21206;-46
2021/01/19 05:19:05;;;;;;;46.08;20.02;;;;;;;-7.52;44.81;102449.14;1695261;84;21583;-45
2021/01/19 05:21:37;;;;;;;37.58;18.50;;;;;;;-7.53;44.67;102456.61;1690669;84;21355;-46
2021/01/19 05:24:06;;;;;;;38.48;19.07;;;;;;;-7.57;44.60;102453.35;1697409;84;21211;-43
2021/01/19 05:26:35;;;;;;;28.40;15.83;;;;;;;-7.57;44.44;102460.94;1697034;84;21214;-44
2021/01/19 05:29:05;;;;;;;40.90;19.55;;;;;;;-7.60;44.30;102458.16;1701200;84;21205;-44
2021/01/19 05:31:34;;;;;;;43.55;19.52;;;;;;;-7.60;44.30;102458.16;1695267;84;21603;-44
2021/01/19 05:34:11;;;;;;;29.60;15.60;;;;;;;-7.61;44.37;102463.99;1696406;82;21194;-44
2021/01/19 05:36:43;;;;;;;36.60;18.30;;;;;;;-7.65;44.47;102461.99;1697315;82;21214;-44
2021/01/19 05:39:21;;;;;;;35.17;18.80;;;;;;;-7.62;44.54;102465.62;1817002;77;22719;-44
2021/01/19 05:41:52;;;;;;;38.15;19.60;;;;;;;-7.69;44.55;102472.62;1825152;78;21116;-44
2021/01/19 05:44:29;;;;;;;33.20;17.62;;;;;;;-7.72;44.61;102474.90;1763023;80;21193;-45
2021/01/19 05:47:04;;;;;;;44.50;20.00;;;;;;;-7.74;44.65;102473.90;1763090;80;21205;-44
2021/01/19 05:49:42;;;;;;;36.55;18.95;;;;;;;-7.70;44.55;102473.00;1820090;77;23032;-45
2021/01/19 05:52:15;;;;;;;;;;;;;;;-7.76;44.47;102473.78;1816680;78;21104;-44
2021/01/19 05:54:49;;;;;;;26.80;13.43;;;;;;;-7.78;44.57;102474.42;1810665;78;20117;-45
2021/01/19 05:57:21;;;;;;;34.40;18.02;;;;;;;-7.87;44.38;102476.25;1808659;78;21140;-45
2021/01/19 06:00:01;;;;;;;41.80;19.75;;;;;;;-8.19;44.31;102482.89;1822565;78;21135;-45
2021/01/19 06:02:38;;;;;;;40.05;19.77;;;;;;;-8.44;44.79;102488.53;1776484;80;21214;-45
2021/01/19 06:05:14;;;;;;;30.27;16.70;;;;;;;-8.57;45.29;102498.78;1766691;80;21637;-45
2021/01/19 06:07:48;;;;;;;42.78;20.20;;;;;;;-8.59;45.59;102494.84;1802221;79;23486;-44
2021/01/19 06:10:20;;;;;;;30.20;16.12;;;;;;;-8.69;45.85;102506.21;1776099;80;21577;-44
2021/01/19 06:12:48;;;;;;;31.90;17.17;;;;;;;-8.78;46.19;102499.16;1780407;80;21581;-44
2021/01/19 06:15:27;;;;;;;39.83;19.85;;;;;;;-8.79;46.46;102504.95;1767498;80;21155;-45
2021/01/19 06:17:56;;;;;;;40.45;19.37;;;;;;;-8.73;46.83;102506.72;1786212;80;21136;-44
2021/01/19 06:20:24;;;;;;;37.48;20.05;;;;;;;-8.60;46.88;102512.02;1778710;80;21140;-44
2021/01/19 06:22:57;;;;;;;27.60;16.70;;;;;;;-8.43;47.11;102520.57;1783869;80;21192;-44
2021/01/19 06:25:25;;;;;;;42.85;20.97;;;;;;;-8.19;47.16;102524.55;1770565;80;21136;-44
2021/01/19 06:27:54;;;;;;;38.02;20.12;;;;;;;-7.97;46.86;102522.98;1768783;80;21148;-44
2021/01/19 06:30:25;;;;;;;41.60;21.42;;;;;;;-7.76;46.43;102525.96;1726588;83;21186;-44
2021/01/19 06:32:53;;;;;;;39.10;20.97;;;;;;;-7.57;46.14;102526.66;1710570;81;21152;-44
2021/01/19 06:35:23;;;;;;;31.77;18.75;;;;;;;-7.39;45.80;102520.50;1757193;81;21152;-44
2021/01/19 06:37:53;;;;;;;33.38;18.98;;;;;;;-7.23;45.55;102504.47;1726026;83;21172;-45
2021/01/19 06:40:25;;;;;;;44.18;21.45;;;;;;;-7.11;45.28;102504.14;1742807;81;21129;-44
2021/01/19 06:43:02;;;;;;;38.23;20.20;;;;;;;-6.99;44.95;102510.16;1746667;81;21156;-44
2021/01/19 06:45:31;;;;;;;39.42;20.32;;;;;;;-6.91;44.76;102508.20;1700988;83;21163;-46
2021/01/19 06:48:02;;;;;;;36.53;19.80;;;;;;;-6.87;44.70;102507.28;1745655;81;21180;-45
2021/01/19 06:50:34;;;;;;;;;;;;;;;-6.82;44.62;102506.38;1729159;83;21192;-43
2021/01/19 06:53:18;;;;;;;40.63;22.20;;;;;;;-6.81;44.60;102503.95;1744683;81;20177;-46
2021/01/19 06:56:10;;;;;;;52.83;26.12;;;;;;;-6.80;44.61;102513.29;1718634;83;21613;-46
2021/01/19 06:58:56;;;;;;;42.70;22.02;;;;;;;-6.79;44.62;102515.07;1750079;81;21617;-46
2021/01/19 07:01:28;;;;;;;35.80;18.75;;;;;;;-6.76;44.65;102525.41;1750210;81;21599;-46
2021/01/19 07:04:06;;;;;;;33.75;20.15;;;;;;;-6.71;44.59;102531.71;1750511;81;21161;-46
2021/01/19 07:07:08;;;;;;;41.68;22.93;;;;;;;-6.67;44.58;102534.97;1683117;84;21185;-46
2021/01/19 07:10:13;;;;;;;34.20;19.98;;;;;;;-6.62;44.24;102545.83;1683715;84;21687;-46
2021/01/19 07:15:59;;;;;;;46.08;24.23;;;;;;;-6.50;44.36;102534.97;1817313;79;23396;-45
2021/01/19 07:19:13;;;;;;;35.08;20.15;;;;;;;-6.51;44.15;102536.98;1777721;80;21180;-44
2021/01/19 07:22:03;;;;;;;49.65;23.98;;;;;;;-6.49;44.21;102535.45;1773644;80;21169;-45
2021/01/19 07:24:38;;;;;;;36.42;19.32;;;;;;;-6.45;44.26;102532.78;1773241;80;21623;-44
2021/01/19 07:27:09;;;;;;;34.53;18.42;;;;;;;-6.40;44.06;102533.61;1671622;85;21200;-44
2021/01/19 07:29:37;;;;;;;;;;;;;;;-6.35;44.12;102540.29;1675653;85;21197;-44
2021/01/19 07:32:09;;;;;;;31.02;17.65;;;;;;;-6.31;44.20;102532.14;1671509;85;20256;-45
2021/01/19 07:34:39;;;;;;;36.70;19.75;;;;;;;-6.30;44.06;102535.16;1670925;85;21176;-45
2021/01/19 07:37:07;;;;;;;36.77;19.77;;;;;;;-6.30;43.92;102536.42;1673159;85;21629;-46
2021/01/19 07:39:36;;;;;;;29.95;16.35;;;;;;;-6.29;44.06;102545.80;1674072;85;21188;-46
2021/01/19 07:42:11;;;;;;;32.63;18.17;;;;;;;-6.26;43.98;102547.27;1674051;85;21189;-46
2021/01/19 07:44:58;;;;;;;33.85;17.87;;;;;;;-6.16;43.83;102548.48;1770088;79;22950;-45
2021/01/19 07:47:39;;;;;;;35.10;17.85;;;;;;;-6.17;43.77;102545.43;1732115;82;21152;-45
2021/01/19 07:50:15;;;;;;;33.42;19.02;;;;;;;-6.13;43.69;102543.62;1688068;84;21623;-45
2021/01/19 07:52:51;;;;;;;37.53;20.20;;;;;;;-6.03;43.88;102546.05;1803640;78;23063;-44
2021/01/19 07:55:24;;;;;;;29.67;17.80;;;;;;;-6.03;43.97;102551.12;1721145;83;21120;-45
2021/01/19 07:57:53;;;;;;;27.50;17.07;;;;;;;-5.98;43.97;102548.55;1725541;83;21156;-45
2021/01/19 08:00:27;;;;;;;33.40;17.77;;;;;;;-5.95;43.64;102539.88;1744705;81;21126;-45
2021/01/19 08:03:05;;;;;;;32.05;19.23;;;;;;;-5.92;43.31;102541.38;1725455;83;21587;-45
2021/01/19 08:05:35;;;;;;;33.78;18.27;;;;;;;-5.92;43.37;102542.65;1741326;81;21644;-45
2021/01/19 08:08:15;;;;;;;31.15;18.90;;;;;;;-5.91;43.46;102534.26;1725935;83;21163;-46
2021/01/19 08:10:58;;;;;;;36.23;20.10;;;;;;;-5.93;43.26;102528.20;1614188;88;21198;-45
2021/01/19 08:13:27;;;;;;;37.70;20.70;;;;;;;-6.09;43.48;102524.95;1613672;89;21245;-45
2021/01/19 08:16:04;;;;;;;34.65;19.07;;;;;;;-6.30;43.77;102518.69;1612338;89;21204;-45
2021/01/19 08:18:38;;;;;;;37.05;20.57;;;;;;;-6.43;44.41;102529.60;1661953;86;21176;-45
2021/01/19 08:21:12;;;;;;;35.25;19.57;;;;;;;-6.38;44.95;102532.45;1810246;79;23029;-45
2021/01/19 08:23:41;;;;;;;36.15;20.30;;;;;;;-6.35;45.19;102530.16;1775944;80;21564;-44
2021/01/19 08:26:10;;;;;;;40.08;21.02;;;;;;;-6.24;45.30;102529.27;1766502;80;21710;-44
2021/01/19 08:28:39;;;;;;;38.42;20.25;;;;;;;-6.13;45.23;102534.38;1775834;80;21148;-44
2021/01/19 08:31:15;;;;;;;37.85;22.85;;;;;;;-6.01;45.18;102540.70;1772673;80;21117;-44
2021/01/19 08:33:50;;;;;;;37.65;22.62;;;;;;;-5.92;45.07;102547.72;1739494;81;21197;-44
2021/01/19 08:36:15;;;;;;;43.68;21.42;;;;;;;-5.82;44.91;102552.64;1740869;82;21273;-44
2021/01/19 08:38:48;;;;;;;40.08;21.37;;;;;;;-5.71;44.66;102554.31;1741599;82;21151;-44
2021/01/19 08:41:19;;;;;;;40.88;23.80;;;;;;;-5.59;44.51;102547.57;1740735;81;21575;-44
2021/01/19 08:43:53;;;;;;;;;;;;;;;-5.53;44.44;102544.20;1728694;82;21148;-44
2021/01/19 08:46:29;;;;;;;39.98;22.00;;;;;;;-5.45;44.00;102539.28;1836999;77;23060;-45
2021/01/19 08:49:11;;;;;;;43.68;20.95;;;;;;;-5.51;44.23;102546.45;1808532;78;21106;-44
2021/01/19 08:51:46;;;;;;;38.20;22.02;;;;;;;-5.46;44.33;102546.78;1806566;78;21538;-45
2021/01/19 08:54:15;;;;;;;39.00;23.83;;;;;;;-5.45;44.47;102539.28;1751228;81;21654;-45
2021/01/19 08:56:44;;;;;;;43.95;24.98;;;;;;;-5.38;44.44;102541.45;1761142;80;21157;-45
2021/01/19 08:59:16;;;;;;;34.85;22.13;;;;;;;-5.29;44.59;102542.11;1757763;81;21188;-45
2021/01/19 09:01:53;;;;;;;39.88;21.05;;;;;;;-5.19;44.40;102534.36;1747574;81;21177;-44
2021/01/19 09:04:28;;;;;;;30.05;18.02;;;;;;;-5.20;44.43;102529.19;1754609;81;21121;-45
2021/01/19 09:09:46;;;;;;;34.75;22.98;;;;;;;-5.21;44.71;102524.87;1756350;79;28847;-44
2021/01/19 09:12:17;;;;;;;;;;;;;;;-5.30;44.74;102527.67;1739272;82;21188;-44
2021/01/19 09:14:52;;;;;;;31.12;19.62;;;;;;;-5.43;44.99;102517.44;1738086;82;20152;-47
2021/01/19 09:17:28;;;;;;;41.83;21.75;;;;;;;-5.54;45.44;102520.86;1771410;79;23091;-45
2021/01/19 09:20:07;;;;;;;34.00;18.95;;;;;;;-5.72;45.76;102522.48;1737577;82;21572;-45
2021/01/19 09:22:36;;;;;;;33.23;19.20;;;;;;;-5.75;46.08;102524.44;1738513;82;21160;-45
2021/01/19 09:25:07;;;;;;;35.88;19.75;;;;;;;-5.74;46.19;102528.72;1734949;82;21616;-45
2021/01/19 09:27:35;;;;;;;33.98;19.85;;;;;;;-5.80;46.32;102527.02;1708447;83;21156;-45
2021/01/19 09:30:10;;;;;;;34.35;17.67;;;;;;;-5.74;46.25;102516.05;1680122;85;21167;-45
2021/01/19 09:32:42;;;;;;;32.38;18.65;;;;;;;-5.65;46.00;102522.16;1619002;88;21740;-45
2021/01/19 09:35:18;;;;;;;32.80;18.67;;;;;;;-5.59;46.13;102515.88;1771681;79;23059;-44
2021/01/19 09:37:46;;;;;;;32.40;18.45;;;;;;;-5.51;46.31;102516.02;1744544;82;21149;-45
2021/01/19 09:40:17;;;;;;;39.85;19.85;;;;;;;-5.39;46.26;102518.14;1735032;82;21148;-45
2021/01/19 09:42:46;;;;;;;33.50;19.05;;;;;;;-5.28;46.13;102513.44;1740321;82;21176;-44
2021/01/19 09:45:15;;;;;;;44.98;23.62;;;;;;;-5.14;45.94;102509.30;1739121;82;21141;-45
2021/01/19 09:47:43;;;;;;;38.25;19.85;;;;;;;-5.05;45.15;102505.73;1735176;82;21163;-45
2021/01/19 09:50:12;;;;;;;36.48;19.95;;;;;;;-4.97;44.79;102509.66;1742053;82;21140;-45
2021/01/19 09:52:46;;;;;;;41.65;23.00;;;;;;;-4.92;44.79;102502.78;1740576;82;21140;-45
2021/01/19 09:55:20;;;;;;;35.08;18.27;;;;;;;-4.79;44.90;102493.92;1700599;82;21234;-46
2021/01/19 09:58:02;;;;;;;40.60;21.35;;;;;;;-4.63;44.87;102491.63;1696563;84;21159;-46
2021/01/19 10:00:33;;;;;;;35.83;21.25;;;;;;;-4.49;44.31;102479.05;1697060;84;21611;-45
2021/01/19 10:03:11;;;;;;;39.15;25.00;;;;;;;-4.39;43.77;102478.02;1792336;79;28191;-45
2021/01/19 10:05:39;;;;;;;33.58;20.32;;;;;;;-4.37;43.78;102478.58;1772333;80;21116;-46
2021/01/19 10:08:08;;;;;;;41.20;22.07;;;;;;;-4.26;43.50;102476.73;1771711;80;21160;-46
2021/01/19 10:10:38;;;;;;;34.63;21.00;;;;;;;-4.20;43.65;102481.84;1772307;80;21151;-45
2021/01/19 10:13:06;;;;;;;33.58;19.23;;;;;;;-4.14;43.52;102481.34;1772016;80;21112;-45
2021/01/19 10:15:36;;;;;;;38.60;20.02;;;;;;;-4.05;43.64;102486.14;1766725;80;21187;-45
2021/01/19 10:18:05;;;;;;;36.53;20.12;;;;;;;-3.98;43.45;102484.11;1771928;80;21271;-45
2021/01/19 10:20:37;;;;;;;33.38;19.82;;;;;;;-3.92;43.25;102479.41;1772414;80;21550;-45
2021/01/19 10:23:05;;;;;;;33.15;19.45;;;;;;;-3.88;42.97;102473.73;1771714;80;21136;-45
2021/01/19 10:25:36;;;;;;;34.73;20.17;;;;;;;-3.84;42.96;102465.52;1771914;80;21545;-45
2021/01/19 10:28:05;;;;;;;28.25;16.05;;;;;;;-3.78;43.09;102464.63;1772397;80;21172;-45
2021/01/19 10:30:36;;;;;;;35.68;20.30;;;;;;;-3.71;42.80;102465.48;1772060;80;21144;-45
2021/01/19 10:33:04;;;;;;;37.28;19.90;;;;;;;-3.63;42.61;102461.78;1768257;80;21183;-45
2021/01/19 10:35:35;;;;;;;28.15;17.35;;;;;;;-3.60;42.26;102451.77;1775083;80;21274;-45
2021/01/19 10:40:45;;;;;;;30.50;17.98;;;;;;;-3.54;42.16;102441.97;1821882;77;22139;-45
2021/01/19 10:43:13;;;;;;;;;;;;;;;-3.58;42.18;102446.77;1823426;78;21180;-45
2021/01/19 10:45:42;;;;;;;32.13;17.75;;;;;;;-3.56;42.08;102443.54;1821918;78;20396;-45
2021/01/19 10:48:20;;;;;;;33.60;18.92;;;;;;;-3.59;41.95;102435.73;1822102;78;21529;-45
2021/01/19 10:50:49;;;;;;;34.67;20.65;;;;;;;-3.57;42.00;102438.37;1825987;78;21136;-46
2021/01/19 10:53:28;;;;;;;33.75;19.50;;;;;;;-3.57;41.84;102436.71;1744667;81;21317;-45
2021/01/19 10:55:56;;;;;;;45.63;27.60;;;;;;;-3.55;41.79;102437.69;1763648;81;21188;-46
2021/01/19 10:58:24;;;;;;;28.80;15.85;;;;;;;-3.55;41.63;102428.78;1759735;81;21657;-46
2021/01/19 11:00:53;;;;;;;36.17;21.15;;;;;;;-3.54;41.73;102427.98;1755729;81;21302;-45
2021/01/19 11:03:22;;;;;;;32.38;20.70;;;;;;;-3.52;41.59;102429.33;1764568;81;21180;-45
2021/01/19 11:05:52;;;;;;;31.70;17.57;;;;;;;-3.53;41.68;102433.57;1753741;81;21160;-46
2021/01/19 11:08:20;;;;;;;28.52;18.17;;;;;;;-3.50;41.82;102429.03;1756794;81;21160;-46
2021/01/19 11:10:48;;;;;;;27.42;16.55;;;;;;;-3.48;41.69;102421.98;1760257;81;21338;-45
2021/01/19 11:13:17;;;;;;;29.67;17.25;;;;;;;-3.44;41.53;102430.30;1768207;81;21148;-46
2021/01/19 11:15:45;;;;;;;26.45;15.23;;;;;;;-3.43;41.28;102430.80;1755572;81;21156;-45
2021/01/19 11:18:13;;;;;;;28.38;15.58;;;;;;;-3.42;41.13;102432.53;1759609;81;21290;-46
2021/01/19 11:20:42;;;;;;;30.82;17.70;;;;;;;-3.42;41.09;102428.72;1767947;81;21147;-46
2021/01/19 11:23:11;;;;;;;29.55;17.60;;;;;;;-3.42;41.10;102418.95;1759655;81;21160;-46
2021/01/19 11:25:39;;;;;;;28.32;17.17;;;;;;;-3.42;41.22;102411.33;1763094;81;21282;-46
2021/01/19 11:28:09;;;;;;;27.25;16.42;;;;;;;-3.43;41.26;102407.89;1755251;81;21160;-45
2021/01/19 11:30:38;;;;;;;25.85;15.68;;;;;;;-3.43;41.23;102410.44;1746647;81;21310;-45
2021/01/19 11:33:06;;;;;;;29.52;16.90;;;;;;;-3.44;41.15;102403.57;1765728;81;21147;-46
2021/01/19 11:35:35;;;;;;;30.27;17.17;;;;;;;-3.46;41.32;102402.60;1762988;81;21176;-46
2021/01/19 11:38:05;;;;;;;26.40;16.25;;;;;;;-3.46;41.26;102391.16;1752894;81;21176;-46
2021/01/19 11:40:33;;;;;;;32.03;16.80;;;;;;;-3.45;41.08;102386.95;1745240;81;21181;-46
2021/01/19 11:43:04;;;;;;;23.07;14.73;;;;;;;-3.45;41.31;102381.48;1743652;82;21290;-45
2021/01/19 11:45:32;;;;;;;23.22;15.00;;;;;;;-3.44;41.28;102374.70;1778162;80;21298;-46
2021/01/19 11:48:00;;;;;;;25.20;15.18;;;;;;;-3.51;40.70;102387.47;1806185;79;21715;-45